Airport View

Enter AWOS ICAO identifier for current METAR.

ex. KFNL

KCYS 290153Z 30009KT 10SM CLR 11/M12 A3033 RMK AO2 SLP256 T01061117

29 Sep 2020 02:57

Phone: 307-632-7680

Other Area AWOS: K82V - KLAR - KFNL - KGXY

TAF KCYS 282320Z 2900/2924 34016G25KT P6SM FEW250 FM290100 29010KT P6SM SKC FM291300 30015G22KT P6SM SKC